createdAt,value
2017-12-25T00:02:12.862Z,3.1
2017-12-25T00:07:13.041Z,3.1
2017-12-25T00:12:12.938Z,3.1
2017-12-25T00:17:12.861Z,3.1
2017-12-25T00:22:12.875Z,3.2
2017-12-25T00:27:13.051Z,3.3
2017-12-25T00:32:12.864Z,3.3
2017-12-25T00:37:13.023Z,3.3
2017-12-25T00:42:12.904Z,3.3
2017-12-25T00:47:12.969Z,3.3
2017-12-25T00:52:12.994Z,3.2
2017-12-25T00:57:12.908Z,3
2017-12-25T01:02:12.917Z,2.9
2017-12-25T01:07:14.033Z,3
2017-12-25T01:12:12.902Z,3
2017-12-25T01:17:12.897Z,2.9
2017-12-25T01:22:12.894Z,3
2017-12-25T01:27:12.898Z,2.8
2017-12-25T01:32:12.981Z,2.9
2017-12-25T01:37:12.909Z,2.8
2017-12-25T01:42:13.108Z,2.9
2017-12-25T01:47:13.017Z,2.8
2017-12-25T01:52:13.039Z,2.8
2017-12-25T01:57:13.087Z,2.8
2017-12-25T02:02:12.906Z,2.9
2017-12-25T02:07:13.003Z,2.8
2017-12-25T02:12:12.993Z,2.8
2017-12-25T02:17:13.103Z,2.8
2017-12-25T02:22:12.935Z,2.8
2017-12-25T02:27:13.075Z,2.7
2017-12-25T02:32:12.936Z,2.8
2017-12-25T02:37:13.120Z,2.7
2017-12-25T02:42:13.052Z,2.8
2017-12-25T02:47:13.072Z,2.8
2017-12-25T02:52:13.121Z,2.8
2017-12-25T02:57:13.042Z,2.8
2017-12-25T03:02:13.059Z,2.8
2017-12-25T03:07:12.971Z,2.7
2017-12-25T03:12:13.134Z,2.8
2017-12-25T03:17:13.050Z,2.7
2017-12-25T03:22:13.111Z,2.8
2017-12-25T03:27:12.995Z,2.7
2017-12-25T03:32:13.038Z,2.7
2017-12-25T03:37:13.013Z,2.7
2017-12-25T03:42:13.111Z,2.7
2017-12-25T03:47:13.003Z,2.8
2017-12-25T03:52:12.972Z,2.7
2017-12-25T03:57:12.989Z,2.7
2017-12-25T04:02:13.138Z,2.8
2017-12-25T04:07:13.017Z,2.8
2017-12-25T04:12:12.984Z,2.8
2017-12-25T04:17:12.991Z,2.8
2017-12-25T04:22:13.167Z,2.8
2017-12-25T04:27:13.009Z,2.7
2017-12-25T04:32:13.007Z,2.7
2017-12-25T04:37:12.985Z,2.8
2017-12-25T04:42:12.994Z,2.8
2017-12-25T04:47:13.053Z,2.8
2017-12-25T04:52:13.021Z,2.8
2017-12-25T04:57:13.029Z,2.8
2017-12-25T05:02:23.025Z,2.8
2017-12-25T05:07:13.073Z,2.8
2017-12-25T05:12:13.033Z,2.7
2017-12-25T05:17:13.052Z,2.8
2017-12-25T05:22:13.218Z,2.7
2017-12-25T05:27:13.154Z,2.7
2017-12-25T05:32:13.157Z,2.8
2017-12-25T05:37:13.078Z,2.6
2017-12-25T05:42:13.065Z,2.6
2017-12-25T05:47:13.076Z,2.6
2017-12-25T05:52:13.186Z,2.6
2017-12-25T05:57:13.272Z,2.5
2017-12-25T06:02:13.037Z,2.5
2017-12-25T06:07:13.185Z,2.7
2017-12-25T06:12:13.223Z,2.6
2017-12-25T06:17:13.153Z,2.5
2017-12-25T06:22:13.159Z,2.5
2017-12-25T06:27:13.051Z,2.5
2017-12-25T06:32:13.218Z,2.5
2017-12-25T06:37:13.227Z,2.5
2017-12-25T06:42:13.056Z,2.5
2017-12-25T06:47:13.074Z,2.5
2017-12-25T06:52:13.064Z,2.5
2017-12-25T06:57:13.275Z,2.5
2017-12-25T07:02:13.070Z,2.5
2017-12-25T07:07:13.073Z,2.5
2017-12-25T07:12:13.081Z,2.5
2017-12-25T07:17:13.077Z,2.5
2017-12-25T07:22:13.124Z,2.4
2017-12-25T07:27:13.082Z,2.3
2017-12-25T07:40:38.834Z,2.2
2017-12-25T07:45:38.810Z,2.3
2017-12-25T07:52:58.964Z,2.4
2017-12-25T08:03:49.013Z,2.3
2017-12-25T08:08:49.041Z,2.3
2017-12-25T08:13:49.030Z,2.2
2017-12-25T08:18:49.057Z,2.3
2017-12-25T08:23:49.048Z,2.3
2017-12-25T08:28:49.035Z,2.4
2017-12-25T08:33:49.053Z,2.3
2017-12-25T08:38:49.317Z,2.4
2017-12-25T08:43:49.068Z,2.4
2017-12-25T08:48:49.081Z,2.4
2017-12-25T08:53:49.063Z,2.1
2017-12-25T08:58:49.054Z,2.2
2017-12-25T09:03:49.049Z,2.3
2017-12-25T09:08:49.112Z,2.3
2017-12-25T09:13:49.060Z,2.1
2017-12-25T09:18:49.064Z,2.2
2017-12-25T09:23:49.065Z,2.2
2017-12-25T09:28:59.051Z,2.4
2017-12-25T09:33:49.083Z,2.3
2017-12-25T09:38:49.115Z,2.4
2017-12-25T09:43:49.101Z,2.4
2017-12-25T09:53:26.475Z,2.4
2017-12-25T09:58:26.472Z,2.3
2017-12-25T10:03:26.701Z,2.4
2017-12-25T10:08:26.462Z,2.2
2017-12-25T10:13:26.478Z,2.1
2017-12-25T10:18:26.480Z,2
2017-12-25T10:23:27.045Z,2
2017-12-25T10:28:26.491Z,2.1
2017-12-25T10:33:26.735Z,2.3
2017-12-25T10:38:26.491Z,2.2
2017-12-25T10:43:26.628Z,2.3
2017-12-25T10:48:26.697Z,2.3
2017-12-25T10:53:26.577Z,2.1
2017-12-25T10:58:26.511Z,2.4
2017-12-25T11:03:26.528Z,2.3
2017-12-25T11:08:26.507Z,2.3
2017-12-25T11:13:26.505Z,2.2
2017-12-25T11:18:26.513Z,2.3
2017-12-25T11:23:36.497Z,2.3
2017-12-25T11:28:26.551Z,2.1
2017-12-25T11:36:40.495Z,2.2
2017-12-25T11:41:40.467Z,2.3
2017-12-25T12:01:42.491Z,2.4
2017-12-25T12:12:05.976Z,2.2
2017-12-25T12:17:05.733Z,2.4
2017-12-25T12:22:05.761Z,2.5
2017-12-25T12:27:05.730Z,2.3
2017-12-25T12:32:05.746Z,2.3
2017-12-25T12:37:05.829Z,2.3
2017-12-25T12:42:05.745Z,2.3
2017-12-25T12:47:05.874Z,2.4
2017-12-25T12:52:05.751Z,2.4
2017-12-25T12:57:05.953Z,2.4
2017-12-25T13:02:05.754Z,2.2
2017-12-25T13:07:05.768Z,2.3
2017-12-25T13:12:05.783Z,2.3
2017-12-25T13:24:08.567Z,2.3
2017-12-25T13:29:08.753Z,2.3
2017-12-25T13:34:08.519Z,2.3
2017-12-25T13:39:10.140Z,2.4
2017-12-25T13:44:08.527Z,2.4
2017-12-25T13:49:08.530Z,2
2017-12-25T13:54:08.515Z,2.2
2017-12-25T13:59:09.579Z,2.3
2017-12-25T14:04:08.537Z,2.2
2017-12-25T14:09:08.543Z,2.3
2017-12-25T14:14:08.550Z,2.2
2017-12-25T14:19:08.546Z,2.2
2017-12-25T14:24:08.564Z,2.1
2017-12-25T14:29:08.571Z,2.1
2017-12-25T14:34:08.582Z,2
2017-12-25T14:39:08.642Z,2
2017-12-25T14:44:08.579Z,2
2017-12-25T14:49:08.565Z,2
2017-12-25T14:54:08.574Z,2
2017-12-25T14:59:08.581Z,2
2017-12-25T15:04:08.568Z,1.9
2017-12-25T15:09:11.477Z,1.9
2017-12-25T15:14:08.879Z,2
2017-12-25T15:19:11.065Z,2
2017-12-25T15:24:08.804Z,2
2017-12-25T15:29:08.633Z,2
2017-12-25T15:34:09.014Z,2
2017-12-25T15:39:08.635Z,2
2017-12-25T15:44:08.654Z,2
2017-12-25T15:49:08.808Z,1.9
2017-12-25T15:54:08.638Z,2
2017-12-25T15:59:08.732Z,1.9
2017-12-25T16:04:08.648Z,2
2017-12-25T16:09:08.652Z,2
2017-12-25T16:14:08.696Z,2
2017-12-25T16:19:08.666Z,2
2017-12-25T16:24:08.652Z,2
2017-12-25T16:29:08.660Z,1.9
2017-12-25T16:34:08.698Z,1.9
2017-12-25T16:39:08.683Z,1.9
2017-12-25T16:44:08.822Z,1.9
2017-12-25T16:49:08.798Z,1.9
2017-12-25T16:54:08.680Z,1.7
2017-12-25T16:59:08.680Z,1.6
2017-12-25T17:04:08.674Z,1.7
2017-12-25T17:09:08.671Z,1.6
2017-12-25T17:14:08.669Z,1.7
2017-12-25T17:19:08.692Z,1.6
2017-12-25T17:24:08.673Z,1.6
2017-12-25T17:29:08.765Z,1.5
2017-12-25T17:34:08.682Z,1.4
2017-12-25T17:39:08.690Z,1.4
2017-12-25T17:44:08.692Z,1.1
2017-12-25T17:49:08.736Z,1.2
2017-12-25T17:54:08.705Z,1.3
2017-12-25T17:59:08.716Z,1
2017-12-25T18:04:08.695Z,1.2
2017-12-25T18:09:09.491Z,1.1
2017-12-25T18:14:08.765Z,1.2
2017-12-25T18:19:08.738Z,1.3
2017-12-25T18:24:08.768Z,1.3
2017-12-25T18:29:08.750Z,1.4
2017-12-25T18:34:08.767Z,1.4
2017-12-25T18:39:08.745Z,1.4
2017-12-25T18:44:08.736Z,1.4
2017-12-25T18:49:08.788Z,1.4
2017-12-25T18:54:08.748Z,1.3
2017-12-25T18:59:08.777Z,1.3
2017-12-25T19:04:08.771Z,1.2
2017-12-25T19:09:08.761Z,1.2
2017-12-25T19:14:08.769Z,1.1
2017-12-25T19:19:08.764Z,1.1
2017-12-25T19:24:08.836Z,0.8
2017-12-25T19:29:08.816Z,0.9
2017-12-25T19:34:08.807Z,1
2017-12-25T19:39:08.791Z,1
2017-12-25T19:44:08.790Z,0.7
2017-12-25T19:49:08.781Z,0.8
2017-12-25T19:54:08.827Z,0.8
2017-12-25T19:59:08.823Z,0.9
2017-12-25T20:04:08.821Z,0.7
2017-12-25T20:09:08.842Z,0.7
2017-12-25T20:14:13.749Z,0.9
2017-12-25T20:19:08.837Z,0.9
2017-12-25T20:24:14.821Z,1
2017-12-25T20:29:12.524Z,0.9
2017-12-25T20:34:09.480Z,0.8
2017-12-25T20:39:08.818Z,0.8
2017-12-25T20:44:08.875Z,0.7
2017-12-25T20:49:08.819Z,0.8
2017-12-25T20:54:08.863Z,0.7
2017-12-25T20:59:08.831Z,0.8
2017-12-25T21:04:08.849Z,0.7
2017-12-25T21:09:08.844Z,0.6
2017-12-25T21:14:08.962Z,0.6
2017-12-25T21:19:08.865Z,0.7
2017-12-25T21:24:09.022Z,0.7
2017-12-25T21:29:08.856Z,0.7
2017-12-25T21:34:08.839Z,0.7
2017-12-25T21:39:08.832Z,0.4
2017-12-25T21:44:08.816Z,0.3
2017-12-25T21:49:08.831Z,0.5
2017-12-25T21:54:08.881Z,0.6
2017-12-25T21:59:08.867Z,0.5
2017-12-25T22:04:08.860Z,0.3
2017-12-25T22:09:08.968Z,0.4
2017-12-25T22:14:08.992Z,0.4
2017-12-25T22:19:08.889Z,0.3
2017-12-25T22:24:08.936Z,0.3
2017-12-25T22:29:08.937Z,0.2
2017-12-25T22:34:08.840Z,0.3
2017-12-25T22:39:08.876Z,0.4
2017-12-25T22:44:08.981Z,0.4
2017-12-25T22:49:08.864Z,0.2
2017-12-25T22:54:09.023Z,0.2
2017-12-25T22:59:09.099Z,0.2
2017-12-25T23:04:08.996Z,0.2
2017-12-25T23:09:08.912Z,0.2
2017-12-25T23:14:08.871Z,0.1
2017-12-25T23:19:09.175Z,0.2
2017-12-25T23:24:09.032Z,0.2
2017-12-25T23:29:09.069Z,0.2
2017-12-25T23:34:09.060Z,0.1
2017-12-25T23:39:08.904Z,0.2
2017-12-25T23:44:09.036Z,0.2
2017-12-25T23:49:09.103Z,0.2
2017-12-25T23:54:09.105Z,0.3
2017-12-25T23:59:09.030Z,0.2
